RYR99LW EPKK-EPSC
Flight info
| Callsign | RYR99LW |
|---|---|
| Flight time | N/A |
| Altitude | 32000 |
| Route | LUMVE L619 NUDRO/N0391F280 L619 DENKO L996 XERBI DCT FORFE DCT ZAWIK |
| Aircraft | B738/M-SDE2E3FGHIRWXY/LB1 |
Departure
| Time | 2026-05-04 16:56 |
|---|---|
| Airport | Kraków John Paul II International Airport (EPKK) |
Arrival
| Time | N/A |
|---|---|
| Airport | Solidarity Szczecin–Goleniów Airport (EPSC) |
| Time | Latitude | Longitude | Altitude | Speed | Heading |
|---|---|---|---|---|---|
| 2026-05-04 16:22 | 50.07342 | 19.80205 | 799 ft | 0 kts | 168° |
| 2026-05-04 16:43 | 50.07363 | 19.80198 | 799 ft | 4 kts | 168° |
| 2026-05-04 16:43 | 50.07389 | 19.80190 | 799 ft | 4 kts | 168° |
| 2026-05-04 16:44 | 50.07412 | 19.80122 | 799 ft | 1 kts | 77° |
| 2026-05-04 16:47 | 50.07419 | 19.80166 | 799 ft | 5 kts | 77° |
| 2026-05-04 16:48 | 50.07480 | 19.80381 | 799 ft | 8 kts | 19° |
| 2026-05-04 16:48 | 50.07538 | 19.80409 | 799 ft | 9 kts | 17° |
| 2026-05-04 16:49 | 50.07662 | 19.80398 | 799 ft | 10 kts | 348° |
| 2026-05-04 16:49 | 50.07794 | 19.80354 | 799 ft | 0 kts | 348° |
| 2026-05-04 16:50 | 50.07835 | 19.80340 | 799 ft | 0 kts | 348° |
| 2026-05-04 16:51 | 50.07861 | 19.80331 | 799 ft | 5 kts | 348° |
| 2026-05-04 16:52 | 50.07991 | 19.80280 | 799 ft | 12 kts | 327° |
| 2026-05-04 16:52 | 50.08006 | 19.80159 | 800 ft | 12 kts | 258° |
| 2026-05-04 16:53 | 50.08000 | 19.80108 | 800 ft | 0 kts | 258° |
| 2026-05-04 16:55 | 50.07963 | 19.79845 | 799 ft | 61 kts | 258° |
| 2026-05-04 16:55 | 50.07598 | 19.77201 | 958 ft | 169 kts | 259° |
| 2026-05-04 16:56 | 50.07134 | 19.73716 | 2555 ft | 170 kts | 257° |
| 2026-05-04 16:56 | 50.06186 | 19.67152 | 3257 ft | 239 kts | 257° |
| 2026-05-04 16:57 | 50.05811 | 19.64509 | 3594 ft | 256 kts | 257° |
| 2026-05-04 16:57 | 50.05048 | 19.59016 | 5037 ft | 262 kts | 260° |
| 2026-05-04 16:58 | 50.07584 | 19.51470 | 7063 ft | 281 kts | 308° |
| 2026-05-04 16:58 | 50.08837 | 19.49141 | 7787 ft | 283 kts | 308° |
| 2026-05-04 16:59 | 50.11399 | 19.44350 | 9205 ft | 290 kts | 308° |
| 2026-05-04 17:00 | 50.16902 | 19.33907 | 10926 ft | 345 kts | 308° |
| 2026-05-04 17:00 | 50.21498 | 19.25104 | 13129 ft | 351 kts | 308° |
| 2026-05-04 17:01 | 50.24609 | 19.19120 | 14557 ft | 357 kts | 308° |
| 2026-05-04 17:01 | 50.27762 | 19.13041 | 15960 ft | 363 kts | 308° |
| 2026-05-04 17:02 | 50.30945 | 19.06890 | 17307 ft | 369 kts | 309° |
| 2026-05-04 17:02 | 50.34209 | 19.00567 | 18580 ft | 376 kts | 309° |
| 2026-05-04 17:03 | 50.35842 | 18.97396 | 19224 ft | 378 kts | 308° |
| 2026-05-04 17:03 | 50.37492 | 18.94189 | 19806 ft | 381 kts | 308° |
| 2026-05-04 17:03 | 50.40844 | 18.87661 | 20971 ft | 386 kts | 308° |
| 2026-05-04 17:04 | 50.44241 | 18.81030 | 22073 ft | 392 kts | 308° |
| 2026-05-04 17:04 | 50.47679 | 18.74301 | 23145 ft | 398 kts | 308° |
| 2026-05-04 17:05 | 50.51168 | 18.67455 | 24078 ft | 404 kts | 308° |
| 2026-05-04 17:05 | 50.54685 | 18.60535 | 24977 ft | 407 kts | 308° |
| 2026-05-04 17:06 | 50.58243 | 18.53517 | 25793 ft | 412 kts | 308° |
| 2026-05-04 17:06 | 50.60038 | 18.49970 | 26229 ft | 414 kts | 308° |
| 2026-05-04 17:07 | 50.63639 | 18.42837 | 27072 ft | 417 kts | 308° |
| 2026-05-04 17:07 | 50.64223 | 18.41677 | 27277 ft | 415 kts | 308° |
| 2026-05-04 17:07 | 50.67195 | 18.35773 | 28237 ft | 412 kts | 308° |
| 2026-05-04 17:07 | 50.68975 | 18.32231 | 28752 ft | 411 kts | 308° |
| 2026-05-04 17:08 | 50.70745 | 18.28706 | 29237 ft | 410 kts | 308° |
| 2026-05-04 17:08 | 50.74276 | 18.21639 | 30210 ft | 409 kts | 308° |
| 2026-05-04 17:08 | 50.76005 | 18.18086 | 30618 ft | 408 kts | 307° |
| 2026-05-04 17:09 | 50.77723 | 18.14510 | 31018 ft | 407 kts | 307° |
| 2026-05-04 17:09 | 50.79426 | 18.10948 | 31445 ft | 405 kts | 307° |
| 2026-05-04 17:09 | 50.81124 | 18.07395 | 31848 ft | 404 kts | 307° |
| 2026-05-04 17:10 | 50.89615 | 17.89620 | 31953 ft | 402 kts | 307° |
| 2026-05-04 17:11 | 50.92995 | 17.82522 | 31956 ft | 405 kts | 307° |
| 2026-05-04 17:12 | 50.97461 | 17.73111 | 31952 ft | 407 kts | 307° |
| 2026-05-04 17:13 | 51.04472 | 17.58268 | 31942 ft | 407 kts | 307° |
| 2026-05-04 17:14 | 51.10592 | 17.45240 | 31943 ft | 404 kts | 306° |
| 2026-05-04 17:15 | 51.15160 | 17.35812 | 31931 ft | 402 kts | 314° |
| 2026-05-04 17:15 | 51.18493 | 17.31649 | 31937 ft | 402 kts | 328° |
| 2026-05-04 17:16 | 51.23312 | 17.28267 | 31946 ft | 403 kts | 338° |
| 2026-05-04 17:17 | 51.33744 | 17.22108 | 31945 ft | 404 kts | 337° |
| 2026-05-04 17:18 | 51.44307 | 17.15653 | 31938 ft | 405 kts | 337° |
| 2026-05-04 17:19 | 51.54787 | 17.09211 | 31937 ft | 406 kts | 337° |
| 2026-05-04 17:20 | 51.65349 | 17.02686 | 31937 ft | 407 kts | 336° |
| 2026-05-04 17:20 | 51.73269 | 16.97769 | 31931 ft | 407 kts | 336° |
| 2026-05-04 17:21 | 51.83807 | 16.91183 | 31933 ft | 406 kts | 336° |
| 2026-05-04 17:22 | 51.89090 | 16.87869 | 31934 ft | 406 kts | 336° |
| 2026-05-04 17:23 | 51.99537 | 16.81295 | 31917 ft | 390 kts | 336° |
| 2026-05-04 17:24 | 52.07041 | 16.76546 | 31784 ft | 389 kts | 336° |
| 2026-05-04 17:24 | 52.14078 | 16.71509 | 30807 ft | 375 kts | 323° |
| 2026-05-04 17:25 | 52.16127 | 16.69017 | 30451 ft | 371 kts | 319° |
| 2026-05-04 17:25 | 52.20139 | 16.63798 | 29682 ft | 367 kts | 319° |
| 2026-05-04 17:26 | 52.24088 | 16.58651 | 28895 ft | 361 kts | 319° |
| 2026-05-04 17:26 | 52.29909 | 16.51122 | 27781 ft | 352 kts | 318° |
| 2026-05-04 17:27 | 52.33720 | 16.46194 | 27056 ft | 347 kts | 318° |
| 2026-05-04 17:27 | 52.37475 | 16.41331 | 26345 ft | 342 kts | 318° |
| 2026-05-04 17:28 | 52.41173 | 16.36529 | 25663 ft | 341 kts | 318° |
| 2026-05-04 17:29 | 52.46723 | 16.29304 | 24565 ft | 338 kts | 318° |
| 2026-05-04 17:29 | 52.52230 | 16.22114 | 23485 ft | 336 kts | 318° |
| 2026-05-04 17:30 | 52.57697 | 16.14960 | 22268 ft | 333 kts | 318° |
| 2026-05-04 17:31 | 52.61300 | 16.10241 | 21567 ft | 329 kts | 318° |
| 2026-05-04 17:31 | 52.66614 | 16.03257 | 20600 ft | 323 kts | 317° |
| 2026-05-04 17:32 | 52.70112 | 15.98647 | 19907 ft | 320 kts | 317° |
| 2026-05-04 17:33 | 52.75288 | 15.91806 | 18910 ft | 316 kts | 317° |
| 2026-05-04 17:33 | 52.76998 | 15.89543 | 18586 ft | 315 kts | 317° |
| 2026-05-04 17:34 | 52.82135 | 15.82944 | 17524 ft | 314 kts | 326° |
| 2026-05-04 17:34 | 52.84108 | 15.81360 | 17209 ft | 314 kts | 331° |
| 2026-05-04 17:35 | 52.90045 | 15.77006 | 16208 ft | 308 kts | 331° |
| 2026-05-04 17:35 | 52.93942 | 15.74097 | 15571 ft | 305 kts | 331° |
| 2026-05-04 17:35 | 52.95868 | 15.72647 | 15261 ft | 304 kts | 331° |
| 2026-05-04 17:36 | 52.97790 | 15.71197 | 14942 ft | 302 kts | 331° |
| 2026-05-04 17:36 | 52.99698 | 15.69755 | 14635 ft | 301 kts | 331° |
| 2026-05-04 17:36 | 53.01599 | 15.68317 | 14330 ft | 300 kts | 331° |
| 2026-05-04 17:36 | 53.03516 | 15.66913 | 14004 ft | 301 kts | 335° |
| 2026-05-04 17:37 | 53.05526 | 15.65878 | 13659 ft | 303 kts | 341° |
| 2026-05-04 17:37 | 53.07569 | 15.65021 | 13314 ft | 302 kts | 342° |
| 2026-05-04 17:37 | 53.09569 | 15.64203 | 12977 ft | 300 kts | 342° |
| 2026-05-04 17:37 | 53.11595 | 15.63357 | 12659 ft | 299 kts | 341° |
| 2026-05-04 17:38 | 53.13598 | 15.62499 | 12352 ft | 297 kts | 341° |
| 2026-05-04 17:38 | 53.15600 | 15.61625 | 12039 ft | 296 kts | 341° |
| 2026-05-04 17:38 | 53.17582 | 15.60752 | 11727 ft | 294 kts | 341° |
| 2026-05-04 17:38 | 53.19554 | 15.59879 | 11437 ft | 292 kts | 340° |
| 2026-05-04 17:39 | 53.23422 | 15.57950 | 10828 ft | 286 kts | 332° |
| 2026-05-04 17:39 | 53.25221 | 15.56553 | 10532 ft | 284 kts | 329° |
| 2026-05-04 17:39 | 53.26978 | 15.55145 | 10243 ft | 283 kts | 330° |
| 2026-05-04 17:40 | 53.28757 | 15.53748 | 10064 ft | 277 kts | 330° |
| 2026-05-04 17:40 | 53.30349 | 15.52071 | 9776 ft | 268 kts | 310° |
| 2026-05-04 17:40 | 53.31471 | 15.49579 | 9264 ft | 270 kts | 300° |
| 2026-05-04 17:40 | 53.32527 | 15.46930 | 8695 ft | 278 kts | 300° |
| 2026-05-04 17:41 | 53.33613 | 15.44212 | 8129 ft | 285 kts | 301° |